createdAt,value
2022-12-18T00:00:10.921Z,75.85
2022-12-18T00:02:39.445Z,77.33
2022-12-18T00:05:09.543Z,77.29
2022-12-18T00:07:37.985Z,77.08
2022-12-18T00:10:07.620Z,77.33
2022-12-18T00:12:35.430Z,77.24
2022-12-18T00:15:06.445Z,77.54
2022-12-18T00:17:34.562Z,76.77
2022-12-18T00:20:02.532Z,75.74
2022-12-18T00:22:30.321Z,76.73
2022-12-18T00:24:58.236Z,76.31
2022-12-18T00:27:26.052Z,77.66
2022-12-18T00:29:53.833Z,78.18
2022-12-18T00:32:23.405Z,78.14
2022-12-18T00:34:51.162Z,77.34
2022-12-18T00:37:20.401Z,77.37
2022-12-18T00:39:50.372Z,76.88
2022-12-18T00:42:35.810Z,77.67
2022-12-18T00:45:09.088Z,78.00
2022-12-18T00:47:42.320Z,79.49
2022-12-18T00:50:11.798Z,80.11
2022-12-18T00:52:39.832Z,78.49
2022-12-18T00:55:08.880Z,79.67
2022-12-18T00:57:37.082Z,79.53
2022-12-18T01:00:06.328Z,79.54
2022-12-18T01:02:34.289Z,79.22
2022-12-18T01:05:03.739Z,79.06
2022-12-18T01:07:31.660Z,79.43
2022-12-18T01:09:59.720Z,78.18
2022-12-18T01:12:27.672Z,77.89
2022-12-18T01:14:55.528Z,77.08
2022-12-18T01:17:24.085Z,76.97
2022-12-18T01:19:52.111Z,76.18
2022-12-18T01:22:21.291Z,76.18
2022-12-18T01:24:49.112Z,76.40
2022-12-18T01:27:17.384Z,76.41
2022-12-18T01:29:45.371Z,77.15
2022-12-18T01:32:13.208Z,76.60
2022-12-18T01:34:41.154Z,75.82
2022-12-18T01:37:09.222Z,75.80
2022-12-18T01:39:38.427Z,75.87
2022-12-18T01:42:13.859Z,75.27
2022-12-18T01:45:08.518Z,74.75
2022-12-18T01:47:43.789Z,74.66
2022-12-18T01:50:18.506Z,74.34
2022-12-18T01:52:51.952Z,74.81
2022-12-18T01:55:25.555Z,75.54
2022-12-18T01:57:57.661Z,75.43
2022-12-18T02:00:27.147Z,74.38
2022-12-18T02:02:57.525Z,74.52
2022-12-18T02:05:42.835Z,74.78
2022-12-18T02:08:17.090Z,75.22
2022-12-18T02:11:01.763Z,74.77
2022-12-18T02:13:42.834Z,75.37
2022-12-18T02:16:23.742Z,75.10
2022-12-18T02:19:00.276Z,74.51
2022-12-18T02:21:42.626Z,74.62
2022-12-18T02:24:29.133Z,74.17
2022-12-18T02:27:04.705Z,75.07
2022-12-18T02:29:40.260Z,75.79
2022-12-18T02:32:16.411Z,75.00
2022-12-18T02:34:48.096Z,75.74
2022-12-18T02:37:20.635Z,75.05
2022-12-18T02:39:51.586Z,73.52
2022-12-18T02:42:21.401Z,74.38
2022-12-18T02:44:51.550Z,73.82
2022-12-18T02:47:23.997Z,73.28
2022-12-18T02:50:05.064Z,73.71
2022-12-18T02:52:42.629Z,75.13
2022-12-18T02:55:26.210Z,74.24
2022-12-18T02:58:00.491Z,75.03
2022-12-18T03:00:38.541Z,74.35
2022-12-18T03:03:16.988Z,74.66
2022-12-18T03:05:55.441Z,73.95
2022-12-18T03:08:26.925Z,73.48
2022-12-18T03:11:01.643Z,72.76
2022-12-18T03:13:38.473Z,73.17
2022-12-18T03:16:13.301Z,73.69
2022-12-18T03:18:49.400Z,73.56
2022-12-18T03:21:28.559Z,73.64
2022-12-18T03:23:58.860Z,73.76
2022-12-18T03:26:31.361Z,73.85
2022-12-18T03:29:08.603Z,73.73
2022-12-18T03:31:40.120Z,73.13
2022-12-18T03:34:16.283Z,73.56
2022-12-18T03:36:46.425Z,74.52
2022-12-18T03:39:14.463Z,74.32
2022-12-18T03:41:53.117Z,74.50
2022-12-18T03:44:32.036Z,74.58
2022-12-18T03:47:09.933Z,75.10
2022-12-18T03:49:43.505Z,75.96
2022-12-18T03:52:19.584Z,75.82
2022-12-18T03:54:48.408Z,75.64
2022-12-18T03:57:23.586Z,74.27
2022-12-18T04:00:01.693Z,75.74
2022-12-18T04:02:32.499Z,74.13
2022-12-18T04:05:06.655Z,74.62
2022-12-18T04:07:35.367Z,74.64
2022-12-18T04:10:08.239Z,74.63
2022-12-18T04:12:36.245Z,73.96
2022-12-18T04:15:07.019Z,74.73
2022-12-18T04:17:34.816Z,75.16
2022-12-18T04:20:02.830Z,75.67
2022-12-18T04:22:30.786Z,74.76
2022-12-18T04:24:58.828Z,73.95
2022-12-18T04:27:26.596Z,73.96
2022-12-18T04:29:54.377Z,74.05
2022-12-18T04:32:23.678Z,74.76
2022-12-18T04:34:51.480Z,73.72
2022-12-18T04:37:19.349Z,74.54
2022-12-18T04:39:47.216Z,73.60
2022-12-18T04:42:15.070Z,73.31
2022-12-18T04:44:42.896Z,72.25
2022-12-18T04:47:10.748Z,72.70
2022-12-18T04:49:39.998Z,72.72
2022-12-18T04:52:08.811Z,73.36
2022-12-18T04:54:36.577Z,72.81
2022-12-18T04:57:04.412Z,71.91
2022-12-18T04:59:32.164Z,72.62
2022-12-18T05:02:00.154Z,72.09
2022-12-18T05:04:28.337Z,71.23
2022-12-18T05:06:57.559Z,72.09
2022-12-18T05:09:25.502Z,71.52
2022-12-18T05:11:53.349Z,71.72
2022-12-18T05:14:21.450Z,70.89
2022-12-18T05:16:49.481Z,69.61
2022-12-18T05:19:19.130Z,69.45
2022-12-18T05:21:46.982Z,70.85
2022-12-18T05:24:16.318Z,70.85
2022-12-18T05:26:44.176Z,70.01
2022-12-18T05:29:13.179Z,69.30
2022-12-18T05:31:42.282Z,69.12
2022-12-18T05:34:11.353Z,68.94
2022-12-18T05:36:39.645Z,69.43
2022-12-18T05:39:07.555Z,68.77
2022-12-18T05:41:37.160Z,68.80
2022-12-18T05:44:05.354Z,68.65
2022-12-18T05:46:34.448Z,69.54
2022-12-18T05:49:03.223Z,68.62
2022-12-18T05:51:30.977Z,68.59
2022-12-18T05:53:58.758Z,69.51
2022-12-18T05:56:26.583Z,69.76
2022-12-18T05:58:56.932Z,69.57
2022-12-18T06:01:28.192Z,69.00
2022-12-18T06:03:57.006Z,68.18
2022-12-18T06:06:29.416Z,68.16
2022-12-18T06:08:58.528Z,68.11
2022-12-18T06:11:29.303Z,67.69
2022-12-18T06:14:00.775Z,68.46
2022-12-18T06:16:30.524Z,67.71
2022-12-18T06:18:59.316Z,68.37
2022-12-18T06:21:28.200Z,68.17
2022-12-18T06:23:56.490Z,67.66
2022-12-18T06:26:28.320Z,67.92
2022-12-18T06:28:58.265Z,67.85
2022-12-18T06:31:27.087Z,70.27
2022-12-18T06:33:55.227Z,72.01
2022-12-18T06:36:23.242Z,70.67
2022-12-18T06:38:51.472Z,70.02
2022-12-18T06:41:23.076Z,69.23
2022-12-18T06:43:52.255Z,73.62
2022-12-18T06:46:23.715Z,71.50
2022-12-18T06:48:52.195Z,70.39
2022-12-18T06:51:22.828Z,71.03
2022-12-18T06:53:51.061Z,70.19
2022-12-18T06:56:18.988Z,70.13
2022-12-18T06:58:46.877Z,70.31
2022-12-18T07:01:16.186Z,71.13
2022-12-18T07:03:45.999Z,70.13
2022-12-18T07:06:20.658Z,70.13
2022-12-18T07:08:49.858Z,69.69
2022-12-18T07:11:19.912Z,69.06
2022-12-18T07:13:48.325Z,69.90
2022-12-18T07:16:24.733Z,70.90
2022-12-18T07:18:55.889Z,71.90
2022-12-18T07:21:25.909Z,72.94
2022-12-18T07:23:53.888Z,72.23
2022-12-18T07:26:24.263Z,72.53
2022-12-18T07:28:52.878Z,73.64
2022-12-18T07:31:23.493Z,73.31
2022-12-18T07:33:54.168Z,73.10
2022-12-18T07:36:22.339Z,72.81
2022-12-18T07:38:52.524Z,72.60
2022-12-18T07:41:21.215Z,72.79
2022-12-18T07:43:49.345Z,72.95
2022-12-18T07:46:18.640Z,71.87
2022-12-18T07:48:49.717Z,70.50
2022-12-18T07:51:20.328Z,70.84
2022-12-18T07:53:48.779Z,70.62
2022-12-18T07:56:29.591Z,70.66
2022-12-18T07:58:58.956Z,70.11
2022-12-18T08:01:28.471Z,69.25
2022-12-18T08:03:56.743Z,69.39
2022-12-18T08:06:26.276Z,69.42
2022-12-18T08:08:55.500Z,68.94
2022-12-18T08:11:24.814Z,68.24
2022-12-18T08:13:52.999Z,66.55
2022-12-18T08:16:22.393Z,66.49
2022-12-18T08:18:50.912Z,65.28
2022-12-18T08:21:22.155Z,65.85
2022-12-18T08:23:52.514Z,67.12
2022-12-18T08:26:21.273Z,67.85
2022-12-18T08:28:50.756Z,67.95
2022-12-18T08:31:21.051Z,67.19
2022-12-18T08:33:51.793Z,66.39
2022-12-18T08:36:20.132Z,66.40
2022-12-18T08:38:48.873Z,66.87
2022-12-18T08:41:20.022Z,68.46
2022-12-18T08:44:05.580Z,68.46
2022-12-18T08:46:37.788Z,67.19
2022-12-18T08:49:06.796Z,67.48
2022-12-18T08:51:36.782Z,67.15
2022-12-18T08:54:06.383Z,67.45
2022-12-18T08:56:36.217Z,65.84
2022-12-18T08:59:05.270Z,64.36
2022-12-18T09:01:33.169Z,63.68
2022-12-18T09:04:02.254Z,63.11
2022-12-18T09:06:30.118Z,62.53
2022-12-18T09:09:00.573Z,62.39
2022-12-18T09:11:30.442Z,61.67
2022-12-18T09:14:01.722Z,62.75
2022-12-18T09:16:32.636Z,62.61
2022-12-18T09:19:13.150Z,62.18
2022-12-18T09:21:46.126Z,62.48
2022-12-18T09:24:17.806Z,62.32
2022-12-18T09:26:47.232Z,62.35
2022-12-18T09:29:19.071Z,62.68
2022-12-18T09:31:53.232Z,61.03
2022-12-18T09:34:22.704Z,60.86
2022-12-18T09:36:50.868Z,61.77
2022-12-18T09:39:22.238Z,61.98
2022-12-18T09:41:55.794Z,62.70
2022-12-18T09:44:31.628Z,62.66
2022-12-18T09:47:11.961Z,62.56
2022-12-18T09:49:45.764Z,61.66
2022-12-18T09:52:22.997Z,62.75
2022-12-18T09:54:59.868Z,62.21
2022-12-18T09:57:27.990Z,62.90
2022-12-18T10:00:06.476Z,62.91
2022-12-18T10:02:34.566Z,62.52
2022-12-18T10:05:10.321Z,62.51
2022-12-18T10:07:51.895Z,62.61
2022-12-18T10:10:40.021Z,61.86
2022-12-18T10:13:21.300Z,62.17
2022-12-18T10:16:17.702Z,62.90
2022-12-18T10:19:09.825Z,62.88
2022-12-18T10:21:58.429Z,62.91
2022-12-18T10:24:36.181Z,63.03
2022-12-18T10:27:16.870Z,62.51
2022-12-18T10:29:46.727Z,62.73
2022-12-18T10:32:20.990Z,62.70
2022-12-18T10:34:49.506Z,62.79
2022-12-18T10:37:20.881Z,63.60
2022-12-18T10:40:09.088Z,63.10
2022-12-18T10:42:37.312Z,61.93
2022-12-18T10:45:12.641Z,61.92
2022-12-18T10:47:48.102Z,61.60
2022-12-18T10:51:01.436Z,60.80
2022-12-18T10:53:23.652Z,61.10
2022-12-18T10:55:54.147Z,60.24
2022-12-18T10:58:30.373Z,60.89
2022-12-18T11:01:12.155Z,60.74
2022-12-18T11:03:45.511Z,61.06
2022-12-18T11:06:16.300Z,60.71
2022-12-18T11:08:58.783Z,60.10
2022-12-18T11:11:27.706Z,60.23
2022-12-18T11:14:03.881Z,60.46
2022-12-18T11:16:37.192Z,60.19
2022-12-18T11:19:28.175Z,59.70
2022-12-18T11:21:56.241Z,60.24
2022-12-18T11:24:31.576Z,59.87
2022-12-18T11:27:03.281Z,59.14
2022-12-18T11:29:37.933Z,58.69
2022-12-18T11:32:42.866Z,58.52
2022-12-18T11:35:21.589Z,58.29
2022-12-18T11:37:58.648Z,58.51
2022-12-18T11:40:40.829Z,58.12
2022-12-18T11:43:15.235Z,58.71
2022-12-18T11:45:51.888Z,57.00
2022-12-18T11:48:27.019Z,57.32
2022-12-18T11:50:58.708Z,57.20
2022-12-18T11:53:29.003Z,56.16
2022-12-18T11:56:16.175Z,57.11
2022-12-18T11:59:03.051Z,57.02
2022-12-18T12:01:52.017Z,56.75
2022-12-18T12:04:50.788Z,56.54
2022-12-18T12:07:42.568Z,56.81
2022-12-18T12:10:34.944Z,57.79
2022-12-18T12:13:35.644Z,57.27
2022-12-18T12:16:19.905Z,57.49
2022-12-18T12:19:09.259Z,56.06
2022-12-18T12:21:44.460Z,56.93
2022-12-18T12:24:37.589Z,58.10
2022-12-18T12:27:20.538Z,57.45
2022-12-18T12:30:02.087Z,57.28
2022-12-18T12:32:52.803Z,57.55
2022-12-18T12:35:34.503Z,56.76
2022-12-18T12:38:12.900Z,56.70
2022-12-18T12:40:56.625Z,57.88
2022-12-18T12:43:40.476Z,56.99
2022-12-18T12:46:15.288Z,57.26
2022-12-18T12:48:50.355Z,56.69
2022-12-18T12:51:23.478Z,56.46
2022-12-18T12:53:52.848Z,56.92
2022-12-18T12:56:24.421Z,56.05
2022-12-18T12:59:08.248Z,57.24
2022-12-18T13:01:50.513Z,55.66
2022-12-18T13:04:29.830Z,55.78
2022-12-18T13:07:05.968Z,55.82
2022-12-18T13:09:36.900Z,55.90
2022-12-18T13:12:30.363Z,55.38
2022-12-18T13:15:22.355Z,57.01
2022-12-18T13:17:50.572Z,56.60
2022-12-18T13:20:18.850Z,56.93
2022-12-18T13:22:51.236Z,55.40
2022-12-18T13:25:39.859Z,55.30
2022-12-18T13:28:15.369Z,55.30
2022-12-18T13:30:57.260Z,55.68
2022-12-18T13:34:24.016Z,55.31
2022-12-18T13:36:41.030Z,56.63
2022-12-18T13:39:35.913Z,56.51
2022-12-18T13:42:59.049Z,56.40
2022-12-18T13:45:52.142Z,56.36
2022-12-18T13:48:25.295Z,57.33
2022-12-18T13:51:02.925Z,56.20
2022-12-18T13:53:41.057Z,56.74
2022-12-18T13:56:09.569Z,57.36
2022-12-18T13:58:38.492Z,57.76
2022-12-18T14:01:24.809Z,56.73
2022-12-18T14:04:12.228Z,57.14
2022-12-18T14:06:40.966Z,56.87
2022-12-18T14:09:21.303Z,56.51
2022-12-18T14:11:52.728Z,57.98
2022-12-18T14:14:21.681Z,57.53
2022-12-18T14:16:53.056Z,57.53
2022-12-18T14:19:22.888Z,57.25
2022-12-18T14:21:52.704Z,57.88
2022-12-18T14:24:23.676Z,58.13
2022-12-18T14:26:52.530Z,56.84
2022-12-18T14:29:27.348Z,57.20
2022-12-18T14:32:19.249Z,57.79
2022-12-18T14:34:49.911Z,57.03
2022-12-18T14:37:22.909Z,57.00
2022-12-18T14:40:16.200Z,57.19
2022-12-18T14:42:44.459Z,56.93
2022-12-18T14:45:41.440Z,57.60
2022-12-18T14:48:23.778Z,57.19
2022-12-18T14:51:02.637Z,56.51
2022-12-18T14:53:39.833Z,57.32
2022-12-18T14:56:22.843Z,57.84
2022-12-18T14:58:55.541Z,57.55
2022-12-18T15:01:29.479Z,58.27
2022-12-18T15:04:01.018Z,57.23
2022-12-18T15:06:36.521Z,58.67
2022-12-18T15:09:22.236Z,58.11
2022-12-18T15:11:51.312Z,57.62
2022-12-18T15:14:40.950Z,57.85
2022-12-18T15:17:20.608Z,57.61
2022-12-18T15:19:53.355Z,57.57
2022-12-18T15:22:27.562Z,58.79
2022-12-18T15:24:57.910Z,58.48
2022-12-18T15:27:36.685Z,58.53
2022-12-18T15:30:21.971Z,59.03
2022-12-18T15:32:51.272Z,59.09
2022-12-18T15:35:24.534Z,58.16
2022-12-18T15:37:53.939Z,58.35
2022-12-18T15:40:24.930Z,59.72
2022-12-18T15:43:14.865Z,59.34
2022-12-18T15:45:42.922Z,59.34
2022-12-18T15:48:23.187Z,59.13
2022-12-18T15:50:54.556Z,59.26
2022-12-18T15:53:22.454Z,59.61
2022-12-18T15:56:08.400Z,59.14
2022-12-18T15:58:36.414Z,59.38
2022-12-18T16:01:04.504Z,60.43
2022-12-18T16:03:32.515Z,60.39
2022-12-18T16:06:03.027Z,59.60
2022-12-18T16:08:32.171Z,60.65
2022-12-18T16:11:00.470Z,60.96
2022-12-18T16:13:28.788Z,60.78
2022-12-18T16:15:57.002Z,60.80
2022-12-18T16:18:24.842Z,60.21
2022-12-18T16:20:52.752Z,60.76
2022-12-18T16:23:22.321Z,60.13
2022-12-18T16:25:50.529Z,60.89
2022-12-18T16:28:18.634Z,61.01
2022-12-18T16:30:47.019Z,61.90
2022-12-18T16:33:20.996Z,61.12
2022-12-18T16:35:54.370Z,61.31
2022-12-18T16:38:23.660Z,60.45
2022-12-18T16:41:09.480Z,61.98
2022-12-18T16:43:38.822Z,62.39
2022-12-18T16:46:07.194Z,61.54
2022-12-18T16:48:35.366Z,60.60
2022-12-18T16:51:05.378Z,60.95
2022-12-18T16:54:10.153Z,61.08
2022-12-18T16:56:58.680Z,60.36
2022-12-18T16:59:27.532Z,60.81
2022-12-18T17:01:57.436Z,61.50
2022-12-18T17:04:25.661Z,61.34
2022-12-18T17:07:00.771Z,62.02
2022-12-18T17:09:29.948Z,60.52
2022-12-18T17:11:57.744Z,61.31
2022-12-18T17:14:27.463Z,60.73
2022-12-18T17:17:19.719Z,59.93
2022-12-18T17:19:48.975Z,61.09
2022-12-18T17:22:17.013Z,60.54
2022-12-18T17:24:47.466Z,60.22
2022-12-18T17:27:16.209Z,59.39
2022-12-18T17:29:47.983Z,60.46
2022-12-18T17:32:16.557Z,59.81
2022-12-18T17:34:44.529Z,60.68
2022-12-18T17:37:12.482Z,60.13
2022-12-18T17:39:40.861Z,60.03
2022-12-18T17:42:14.944Z,60.25
2022-12-18T17:44:44.095Z,61.17
2022-12-18T17:47:13.018Z,60.72
2022-12-18T17:49:41.182Z,60.50
2022-12-18T17:52:09.019Z,61.20
2022-12-18T17:54:39.574Z,60.15
2022-12-18T17:57:09.360Z,60.71
2022-12-18T17:59:37.374Z,60.61
2022-12-18T18:02:05.480Z,60.66
2022-12-18T18:04:33.484Z,60.78
2022-12-18T18:07:01.464Z,60.61
2022-12-18T18:09:29.566Z,60.78
2022-12-18T18:12:14.907Z,61.71
2022-12-18T18:14:44.423Z,60.69
2022-12-18T18:17:12.523Z,61.73
2022-12-18T18:19:41.981Z,61.51
2022-12-18T18:22:11.039Z,61.64
2022-12-18T18:24:38.855Z,61.39
2022-12-18T18:27:06.725Z,62.21
2022-12-18T18:29:34.788Z,60.53
2022-12-18T18:32:04.757Z,61.27
2022-12-18T18:34:34.309Z,61.21
2022-12-18T18:37:03.135Z,61.19
2022-12-18T18:39:43.857Z,61.60
2022-12-18T18:42:11.783Z,60.36
2022-12-18T18:44:43.266Z,61.68
2022-12-18T18:47:14.981Z,61.01
2022-12-18T18:49:42.777Z,61.74
2022-12-18T18:52:10.524Z,61.73
2022-12-18T18:54:44.307Z,62.09
2022-12-18T18:57:21.615Z,62.37
2022-12-18T18:59:50.587Z,62.52
2022-12-18T19:02:20.123Z,62.21
2022-12-18T19:04:47.983Z,62.89
2022-12-18T19:07:25.613Z,62.48
2022-12-18T19:10:04.907Z,62.66
2022-12-18T19:12:52.529Z,62.35
2022-12-18T19:15:28.662Z,62.13
2022-12-18T19:17:58.134Z,63.24
2022-12-18T19:20:26.661Z,62.71
2022-12-18T19:22:57.170Z,62.97
2022-12-18T19:25:38.438Z,63.57
2022-12-18T19:28:22.157Z,63.32
2022-12-18T19:30:57.296Z,63.49
2022-12-18T19:33:46.142Z,63.35
2022-12-18T19:36:20.744Z,63.13
2022-12-18T19:38:50.063Z,63.71
2022-12-18T19:41:18.901Z,63.58
2022-12-18T19:43:48.769Z,62.92
2022-12-18T19:46:20.048Z,62.71
2022-12-18T19:48:50.154Z,64.00
2022-12-18T19:51:20.922Z,64.29
2022-12-18T19:53:53.586Z,63.65
2022-12-18T19:56:27.633Z,63.47
2022-12-18T19:58:56.553Z,63.20
2022-12-18T20:01:27.351Z,63.28
2022-12-18T20:03:58.194Z,64.11
2022-12-18T20:06:30.814Z,63.88
2022-12-18T20:09:01.696Z,63.47
2022-12-18T20:11:29.880Z,64.49
2022-12-18T20:13:57.977Z,63.70
2022-12-18T20:16:25.940Z,63.03
2022-12-18T20:18:55.989Z,63.99
2022-12-18T20:21:26.933Z,64.51
2022-12-18T20:23:55.701Z,64.27
2022-12-18T20:26:24.827Z,63.48
2022-12-18T20:28:53.270Z,62.93
2022-12-18T20:31:28.066Z,64.68
2022-12-18T20:34:00.251Z,63.88
2022-12-18T20:36:30.637Z,63.45
2022-12-18T20:39:00.509Z,63.99
2022-12-18T20:41:30.591Z,62.75
2022-12-18T20:44:06.206Z,63.78
2022-12-18T20:46:41.993Z,62.99
2022-12-18T20:49:11.311Z,64.05
2022-12-18T20:51:39.032Z,64.24
2022-12-18T20:54:11.658Z,64.07
2022-12-18T20:56:39.840Z,64.88
2022-12-18T20:59:07.882Z,64.95
2022-12-18T21:01:35.894Z,64.59
2022-12-18T21:04:05.272Z,65.77
2022-12-18T21:06:34.746Z,65.71
2022-12-18T21:09:02.690Z,65.34
2022-12-18T21:11:51.065Z,65.33
2022-12-18T21:14:22.858Z,65.74
2022-12-18T21:16:54.726Z,66.89
2022-12-18T21:19:25.321Z,67.16
2022-12-18T21:21:56.977Z,66.31
2022-12-18T21:24:25.495Z,67.10
2022-12-18T21:26:54.124Z,67.48
2022-12-18T21:29:25.456Z,67.92
2022-12-18T21:31:55.217Z,68.88
2022-12-18T21:34:26.577Z,69.56
2022-12-18T21:36:58.466Z,68.92
2022-12-18T21:39:27.871Z,69.51
2022-12-18T21:42:14.031Z,69.78
2022-12-18T21:44:42.714Z,70.57
2022-12-18T21:47:22.430Z,71.64
2022-12-18T21:49:53.176Z,72.41
2022-12-18T21:52:31.239Z,73.00
2022-12-18T21:55:06.592Z,71.76
2022-12-18T21:57:36.300Z,72.18
2022-12-18T22:00:06.125Z,72.52
2022-12-18T22:02:35.497Z,72.14
2022-12-18T22:05:03.461Z,73.25
2022-12-18T22:07:32.868Z,72.79
2022-12-18T22:10:01.196Z,73.06
2022-12-18T22:12:43.557Z,74.11
2022-12-18T22:15:21.804Z,73.27
2022-12-18T22:17:51.264Z,73.99
2022-12-18T22:20:26.009Z,73.38
2022-12-18T22:22:56.121Z,73.85
2022-12-18T22:25:23.947Z,74.39
2022-12-18T22:28:05.670Z,74.55
2022-12-18T22:30:38.216Z,74.99
2022-12-18T22:33:06.462Z,74.54
2022-12-18T22:35:44.616Z,74.05
2022-12-18T22:38:14.428Z,74.57
2022-12-18T22:40:42.348Z,74.47
2022-12-18T22:43:10.320Z,74.83
2022-12-18T22:45:38.402Z,74.26
2022-12-18T22:48:07.328Z,75.60
2022-12-18T22:50:35.129Z,75.72
2022-12-18T22:53:02.951Z,75.60
2022-12-18T22:55:32.593Z,75.88
2022-12-18T22:58:00.448Z,76.47
2022-12-18T23:00:28.217Z,76.67
2022-12-18T23:03:00.752Z,77.15
2022-12-18T23:05:31.348Z,77.03
2022-12-18T23:08:00.744Z,77.72
2022-12-18T23:10:29.050Z,77.32
2022-12-18T23:12:58.298Z,77.70
2022-12-18T23:15:27.670Z,76.93
2022-12-18T23:17:58.352Z,77.70
2022-12-18T23:20:26.777Z,77.75
2022-12-18T23:22:55.204Z,77.51
2022-12-18T23:25:23.372Z,78.03
2022-12-18T23:27:52.088Z,77.62
2022-12-18T23:30:21.504Z,78.14
2022-12-18T23:32:49.395Z,78.12
2022-12-18T23:35:17.958Z,78.97
2022-12-18T23:37:58.576Z,78.53
2022-12-18T23:40:27.376Z,78.21
2022-12-18T23:42:55.476Z,79.27
2022-12-18T23:45:24.667Z,79.07
2022-12-18T23:47:52.715Z,79.03
2022-12-18T23:50:27.697Z,78.62
2022-12-18T23:53:04.787Z,77.89
2022-12-18T23:55:39.489Z,78.06
2022-12-18T23:58:07.620Z,77.49
